sensor_id;sensor_type;location;lat;lon;timestamp;pressure;altitude;pressure_sealevel;temperature
14666;BMP280;7420;53.574;10.040;2023-02-15T00:00:52;102743.31;;;3.94
14666;BMP280;7420;53.574;10.040;2023-02-15T00:03:20;102745.72;;;3.97
14666;BMP280;7420;53.574;10.040;2023-02-15T00:05:45;102744.16;;;3.94
14666;BMP280;7420;53.574;10.040;2023-02-15T00:08:11;102743.13;;;4.08
14666;BMP280;7420;53.574;10.040;2023-02-15T00:10:36;102746.34;;;4.22
14666;BMP280;7420;53.574;10.040;2023-02-15T00:13:02;102736.41;;;4.04
14666;BMP280;7420;53.574;10.040;2023-02-15T00:15:27;102733.75;;;4.15
14666;BMP280;7420;53.574;10.040;2023-02-15T00:17:53;102742.16;;;4.09
14666;BMP280;7420;53.574;10.040;2023-02-15T00:20:18;102738.31;;;4.13
14666;BMP280;7420;53.574;10.040;2023-02-15T00:22:44;102732.94;;;4.03
14666;BMP280;7420;53.574;10.040;2023-02-15T00:25:09;102728.50;;;4.04
14666;BMP280;7420;53.574;10.040;2023-02-15T00:27:34;102722.50;;;3.91
14666;BMP280;7420;53.574;10.040;2023-02-15T00:30:00;102721.56;;;3.92
14666;BMP280;7420;53.574;10.040;2023-02-15T00:32:25;102719.75;;;3.92
14666;BMP280;7420;53.574;10.040;2023-02-15T00:34:50;102720.38;;;3.96
14666;BMP280;7420;53.574;10.040;2023-02-15T00:37:16;102728.97;;;3.87
14666;BMP280;7420;53.574;10.040;2023-02-15T00:39:41;102726.56;;;3.84
14666;BMP280;7420;53.574;10.040;2023-02-15T00:42:07;102716.28;;;3.81
14666;BMP280;7420;53.574;10.040;2023-02-15T00:44:32;102716.50;;;3.78
14666;BMP280;7420;53.574;10.040;2023-02-15T00:46:57;102712.44;;;3.85
14666;BMP280;7420;53.574;10.040;2023-02-15T00:49:23;102712.00;;;3.91
14666;BMP280;7420;53.574;10.040;2023-02-15T00:51:48;102705.50;;;3.84
14666;BMP280;7420;53.574;10.040;2023-02-15T00:54:13;102715.34;;;3.93
14666;BMP280;7420;53.574;10.040;2023-02-15T00:56:39;102701.00;;;3.97
14666;BMP280;7420;53.574;10.040;2023-02-15T00:59:04;102708.16;;;3.95
14666;BMP280;7420;53.574;10.040;2023-02-15T01:01:29;102712.72;;;4.04
14666;BMP280;7420;53.574;10.040;2023-02-15T01:03:55;102702.91;;;3.95
14666;BMP280;7420;53.574;10.040;2023-02-15T01:06:20;102707.06;;;3.97
14666;BMP280;7420;53.574;10.040;2023-02-15T01:08:46;102707.09;;;4.08
14666;BMP280;7420;53.574;10.040;2023-02-15T01:11:16;102696.94;;;4.04
14666;BMP280;7420;53.574;10.040;2023-02-15T01:13:47;102698.59;;;4.05
14666;BMP280;7420;53.574;10.040;2023-02-15T01:16:12;102700.03;;;4.20
14666;BMP280;7420;53.574;10.040;2023-02-15T01:18:38;102700.03;;;4.31
14666;BMP280;7420;53.574;10.040;2023-02-15T01:21:14;102691.91;;;4.01
14666;BMP280;7420;53.574;10.040;2023-02-15T01:23:41;102692.59;;;4.14
14666;BMP280;7420;53.574;10.040;2023-02-15T01:26:07;102690.69;;;4.16
14666;BMP280;7420;53.574;10.040;2023-02-15T01:28:33;102677.66;;;4.14
14666;BMP280;7420;53.574;10.040;2023-02-15T01:30:59;102677.31;;;4.08
14666;BMP280;7420;53.574;10.040;2023-02-15T01:33:25;102677.31;;;4.08
14666;BMP280;7420;53.574;10.040;2023-02-15T01:35:57;102669.84;;;4.13
14666;BMP280;7420;53.574;10.040;2023-02-15T01:38:22;102674.16;;;4.14
14666;BMP280;7420;53.574;10.040;2023-02-15T01:40:51;102668.47;;;4.09
14666;BMP280;7420;53.574;10.040;2023-02-15T01:43:17;102662.69;;;4.15
14666;BMP280;7420;53.574;10.040;2023-02-15T01:45:45;102666.16;;;4.04
14666;BMP280;7420;53.574;10.040;2023-02-15T01:48:21;102666.28;;;3.92
14666;BMP280;7420;53.574;10.040;2023-02-15T01:50:54;102662.69;;;3.93
14666;BMP280;7420;53.574;10.040;2023-02-15T01:53:26;102661.88;;;3.81
14666;BMP280;7420;53.574;10.040;2023-02-15T01:55:59;102675.13;;;3.80
14666;BMP280;7420;53.574;10.040;2023-02-15T01:58:28;102658.03;;;3.85
14666;BMP280;7420;53.574;10.040;2023-02-15T02:00:56;102658.53;;;3.79
14666;BMP280;7420;53.574;10.040;2023-02-15T02:03:33;102654.06;;;3.80
14666;BMP280;7420;53.574;10.040;2023-02-15T02:06:01;102652.56;;;3.88
14666;BMP280;7420;53.574;10.040;2023-02-15T02:08:27;102649.06;;;3.77
14666;BMP280;7420;53.574;10.040;2023-02-15T02:10:53;102650.25;;;3.73
14666;BMP280;7420;53.574;10.040;2023-02-15T02:13:18;102647.38;;;3.76
14666;BMP280;7420;53.574;10.040;2023-02-15T02:18:29;102635.78;;;3.67
14666;BMP280;7420;53.574;10.040;2023-02-15T02:34:55;102613.06;;;3.77
14666;BMP280;7420;53.574;10.040;2023-02-15T02:40:03;102609.22;;;3.92
14666;BMP280;7420;53.574;10.040;2023-02-15T02:42:43;102605.41;;;3.85
14666;BMP280;7420;53.574;10.040;2023-02-15T02:45:25;102601.34;;;3.81
14666;BMP280;7420;53.574;10.040;2023-02-15T02:47:56;102603.13;;;3.92
14666;BMP280;7420;53.574;10.040;2023-02-15T02:50:27;102600.03;;;3.87
14666;BMP280;7420;53.574;10.040;2023-02-15T02:52:54;102603.28;;;3.79
14666;BMP280;7420;53.574;10.040;2023-02-15T03:00:37;102599.53;;;3.82
14666;BMP280;7420;53.574;10.040;2023-02-15T03:06:00;102590.72;;;3.72
14666;BMP280;7420;53.574;10.040;2023-02-15T03:08:32;102592.75;;;3.79
14666;BMP280;7420;53.574;10.040;2023-02-15T03:11:00;102587.81;;;3.75
14666;BMP280;7420;53.574;10.040;2023-02-15T03:13:27;102592.84;;;3.78
14666;BMP280;7420;53.574;10.040;2023-02-15T03:15:53;102579.69;;;3.78
14666;BMP280;7420;53.574;10.040;2023-02-15T03:18:44;102579.44;;;3.81
14666;BMP280;7420;53.574;10.040;2023-02-15T03:21:19;102580.88;;;3.85
14666;BMP280;7420;53.574;10.040;2023-02-15T03:23:54;102578.16;;;3.86
14666;BMP280;7420;53.574;10.040;2023-02-15T03:26:23;102586.38;;;3.82
14666;BMP280;7420;53.574;10.040;2023-02-15T03:28:50;102574.56;;;3.87
14666;BMP280;7420;53.574;10.040;2023-02-15T03:31:21;102575.16;;;3.91
14666;BMP280;7420;53.574;10.040;2023-02-15T03:33:53;102571.09;;;3.76
14666;BMP280;7420;53.574;10.040;2023-02-15T03:39:10;102565.25;;;3.72
14666;BMP280;7420;53.574;10.040;2023-02-15T03:41:44;102568.72;;;3.62
14666;BMP280;7420;53.574;10.040;2023-02-15T03:44:28;102565.00;;;3.53
14666;BMP280;7420;53.574;10.040;2023-02-15T03:47:06;102560.34;;;3.57
14666;BMP280;7420;53.574;10.040;2023-02-15T03:49:53;102561.53;;;3.53
14666;BMP280;7420;53.574;10.040;2023-02-15T03:52:21;102551.16;;;3.51
14666;BMP280;7420;53.574;10.040;2023-02-15T03:54:48;102555.94;;;3.46
14666;BMP280;7420;53.574;10.040;2023-02-15T03:59:59;102557.34;;;3.39
14666;BMP280;7420;53.574;10.040;2023-02-15T04:02:55;102547.66;;;3.40
14666;BMP280;7420;53.574;10.040;2023-02-15T04:05:24;102557.72;;;3.57
14666;BMP280;7420;53.574;10.040;2023-02-15T04:07:49;102545.28;;;3.70
14666;BMP280;7420;53.574;10.040;2023-02-15T04:10:15;102555.66;;;3.60
14666;BMP280;7420;53.574;10.040;2023-02-15T04:12:59;102547.44;;;3.54
14666;BMP280;7420;53.574;10.040;2023-02-15T04:15:24;102544.31;;;3.38
14666;BMP280;7420;53.574;10.040;2023-02-15T04:18:08;102543.13;;;3.31
14666;BMP280;7420;53.574;10.040;2023-02-15T04:20:33;102532.75;;;3.40
14666;BMP280;7420;53.574;10.040;2023-02-15T04:23:17;102539.19;;;3.47
14666;BMP280;7420;53.574;10.040;2023-02-15T04:26:04;102538.97;;;3.50
14666;BMP280;7420;53.574;10.040;2023-02-15T04:28:30;102534.03;;;3.46
14666;BMP280;7420;53.574;10.040;2023-02-15T04:30:55;102533.91;;;3.26
14666;BMP280;7420;53.574;10.040;2023-02-15T04:33:21;102537.00;;;3.20
14666;BMP280;7420;53.574;10.040;2023-02-15T04:35:46;102536.69;;;3.24
14666;BMP280;7420;53.574;10.040;2023-02-15T04:38:11;102528.19;;;3.32
14666;BMP280;7420;53.574;10.040;2023-02-15T04:40:37;102533.34;;;3.33
14666;BMP280;7420;53.574;10.040;2023-02-15T04:43:02;102530.69;;;3.44
14666;BMP280;7420;53.574;10.040;2023-02-15T04:45:27;102528.31;;;3.30
14666;BMP280;7420;53.574;10.040;2023-02-15T04:47:53;102530.72;;;3.33
14666;BMP280;7420;53.574;10.040;2023-02-15T04:50:18;102524.59;;;3.33
14666;BMP280;7420;53.574;10.040;2023-02-15T04:52:44;102516.59;;;3.34
14666;BMP280;7420;53.574;10.040;2023-02-15T04:55:09;102529.13;;;3.31
14666;BMP280;7420;53.574;10.040;2023-02-15T04:57:35;102517.66;;;3.32
14666;BMP280;7420;53.574;10.040;2023-02-15T05:00:00;102510.97;;;3.28
14666;BMP280;7420;53.574;10.040;2023-02-15T05:02:26;102510.16;;;3.27
14666;BMP280;7420;53.574;10.040;2023-02-15T05:04:51;102513.13;;;3.23
14666;BMP280;7420;53.574;10.040;2023-02-15T05:07:16;102504.66;;;3.19
14666;BMP280;7420;53.574;10.040;2023-02-15T05:09:42;102510.84;;;3.18
14666;BMP280;7420;53.574;10.040;2023-02-15T05:12:08;102506.19;;;3.00
14666;BMP280;7420;53.574;10.040;2023-02-15T05:14:33;102513.38;;;3.09
14666;BMP280;7420;53.574;10.040;2023-02-15T05:16:58;102502.03;;;3.19
14666;BMP280;7420;53.574;10.040;2023-02-15T05:19:26;102502.22;;;2.94
14666;BMP280;7420;53.574;10.040;2023-02-15T05:21:52;102497.94;;;3.15
14666;BMP280;7420;53.574;10.040;2023-02-15T05:24:17;102496.03;;;3.17
14666;BMP280;7420;53.574;10.040;2023-02-15T05:27:01;102492.09;;;3.01
14666;BMP280;7420;53.574;10.040;2023-02-15T05:29:45;102496.75;;;3.08
14666;BMP280;7420;53.574;10.040;2023-02-15T05:32:12;102490.91;;;3.27
14666;BMP280;7420;53.574;10.040;2023-02-15T05:34:38;102502.97;;;3.18
14666;BMP280;7420;53.574;10.040;2023-02-15T05:37:03;102498.50;;;2.86
14666;BMP280;7420;53.574;10.040;2023-02-15T05:39:28;102490.84;;;2.72
14666;BMP280;7420;53.574;10.040;2023-02-15T05:41:54;102489.06;;;2.94
14666;BMP280;7420;53.574;10.040;2023-02-15T05:44:19;102491.50;;;3.08
14666;BMP280;7420;53.574;10.040;2023-02-15T05:46:44;102487.41;;;3.04
14666;BMP280;7420;53.574;10.040;2023-02-15T05:49:10;102477.50;;;2.97
14666;BMP280;7420;53.574;10.040;2023-02-15T05:51:35;102472.13;;;2.98
14666;BMP280;7420;53.574;10.040;2023-02-15T05:54:00;102467.13;;;2.84
14666;BMP280;7420;53.574;10.040;2023-02-15T05:56:26;102474.66;;;3.00
14666;BMP280;7420;53.574;10.040;2023-02-15T05:58:52;102473.19;;;2.74
14666;BMP280;7420;53.574;10.040;2023-02-15T06:01:18;102476.72;;;2.62
14666;BMP280;7420;53.574;10.040;2023-02-15T06:03:46;102477.00;;;2.70
14666;BMP280;7420;53.574;10.040;2023-02-15T06:06:11;102482.09;;;2.60
14666;BMP280;7420;53.574;10.040;2023-02-15T06:08:37;102471.13;;;2.66
14666;BMP280;7420;53.574;10.040;2023-02-15T06:11:03;102471.63;;;2.71
14666;BMP280;7420;53.574;10.040;2023-02-15T06:13:29;102483.75;;;2.61
14666;BMP280;7420;53.574;10.040;2023-02-15T06:15:54;102473.72;;;2.55
14666;BMP280;7420;53.574;10.040;2023-02-15T06:18:20;102476.34;;;2.44
14666;BMP280;7420;53.574;10.040;2023-02-15T06:20:46;102477.59;;;2.73
14666;BMP280;7420;53.574;10.040;2023-02-15T06:23:12;102484.66;;;2.95
14666;BMP280;7420;53.574;10.040;2023-02-15T06:25:37;102482.88;;;2.84
14666;BMP280;7420;53.574;10.040;2023-02-15T06:28:03;102482.88;;;2.84
14666;BMP280;7420;53.574;10.040;2023-02-15T06:30:28;102490.28;;;2.90
14666;BMP280;7420;53.574;10.040;2023-02-15T06:32:54;102489.78;;;2.96
14666;BMP280;7420;53.574;10.040;2023-02-15T06:35:19;102483.81;;;2.83
14666;BMP280;7420;53.574;10.040;2023-02-15T06:37:45;102494.81;;;2.88
14666;BMP280;7420;53.574;10.040;2023-02-15T06:40:12;102496.72;;;2.97
14666;BMP280;7420;53.574;10.040;2023-02-15T06:42:37;102496.84;;;2.96
14666;BMP280;7420;53.574;10.040;2023-02-15T06:45:03;102487.50;;;2.81
14666;BMP280;7420;53.574;10.040;2023-02-15T06:47:29;102495.03;;;2.74
14666;BMP280;7420;53.574;10.040;2023-02-15T06:49:54;102490.75;;;2.84
14666;BMP280;7420;53.574;10.040;2023-02-15T06:52:19;102488.22;;;2.83
14666;BMP280;7420;53.574;10.040;2023-02-15T06:54:45;102486.88;;;2.66
14666;BMP280;7420;53.574;10.040;2023-02-15T06:57:10;102491.91;;;2.69
14666;BMP280;7420;53.574;10.040;2023-02-15T06:59:36;102490.22;;;2.68
14666;BMP280;7420;53.574;10.040;2023-02-15T07:02:01;102480.94;;;2.75
14666;BMP280;7420;53.574;10.040;2023-02-15T07:04:26;102477.81;;;2.70
14666;BMP280;7420;53.574;10.040;2023-02-15T07:06:54;102472.78;;;2.67
14666;BMP280;7420;53.574;10.040;2023-02-15T07:09:20;102478.53;;;2.72
14666;BMP280;7420;53.574;10.040;2023-02-15T07:11:45;102478.91;;;2.79
14666;BMP280;7420;53.574;10.040;2023-02-15T07:14:29;102476.44;;;2.88
14666;BMP280;7420;53.574;10.040;2023-02-15T07:16:55;102477.34;;;2.76
14666;BMP280;7420;53.574;10.040;2023-02-15T07:19:20;102480.47;;;2.81
14666;BMP280;7420;53.574;10.040;2023-02-15T07:21:45;102472.69;;;2.80
14666;BMP280;7420;53.574;10.040;2023-02-15T07:24:11;102463.38;;;2.76
14666;BMP280;7420;53.574;10.040;2023-02-15T07:26:36;102465.06;;;2.77
14666;BMP280;7420;53.574;10.040;2023-02-15T07:29:02;102459.22;;;2.73
14666;BMP280;7420;53.574;10.040;2023-02-15T07:31:27;102464.72;;;2.81
14666;BMP280;7420;53.574;10.040;2023-02-15T07:33:52;102465.63;;;2.69
14666;BMP280;7420;53.574;10.040;2023-02-15T07:36:18;102455.84;;;2.71
14666;BMP280;7420;53.574;10.040;2023-02-15T07:38:43;102455.50;;;2.76
14666;BMP280;7420;53.574;10.040;2023-02-15T07:41:12;102455.84;;;2.71
14666;BMP280;7420;53.574;10.040;2023-02-15T07:43:40;102457.28;;;2.64
14666;BMP280;7420;53.574;10.040;2023-02-15T07:46:08;102447.03;;;2.72
14666;BMP280;7420;53.574;10.040;2023-02-15T07:48:35;102445.09;;;2.63
14666;BMP280;7420;53.574;10.040;2023-02-15T07:51:03;102444.16;;;2.64
14666;BMP280;7420;53.574;10.040;2023-02-15T07:53:29;102449.44;;;2.75
14666;BMP280;7420;53.574;10.040;2023-02-15T07:55:58;102437.44;;;2.60
14666;BMP280;7420;53.574;10.040;2023-02-15T07:58:24;102439.19;;;2.38
14666;BMP280;7420;53.574;10.040;2023-02-15T08:01:09;102445.06;;;2.41
14666;BMP280;7420;53.574;10.040;2023-02-15T08:03:34;102440.31;;;2.46
14666;BMP280;7420;53.574;10.040;2023-02-15T08:06:00;102441.91;;;2.71
14666;BMP280;7420;53.574;10.040;2023-02-15T08:08:26;102449.44;;;2.41
14666;BMP280;7420;53.574;10.040;2023-02-15T08:11:20;102444.06;;;2.31
14666;BMP280;7420;53.574;10.040;2023-02-15T08:13:57;102443.97;;;2.44
14666;BMP280;7420;53.574;10.040;2023-02-15T08:19:16;102432.91;;;2.62
14666;BMP280;7420;53.574;10.040;2023-02-15T08:21:47;102437.13;;;2.30
14666;BMP280;7420;53.574;10.040;2023-02-15T08:24:15;102431.16;;;2.28
14666;BMP280;7420;53.574;10.040;2023-02-15T08:26:41;102421.47;;;2.18
14666;BMP280;7420;53.574;10.040;2023-02-15T08:29:08;102420.88;;;2.15
14666;BMP280;7420;53.574;10.040;2023-02-15T08:31:34;102421.94;;;2.12
14666;BMP280;7420;53.574;10.040;2023-02-15T08:34:00;102425.59;;;2.33
14666;BMP280;7420;53.574;10.040;2023-02-15T08:36:28;102426.66;;;2.30
14666;BMP280;7420;53.574;10.040;2023-02-15T08:38:56;102421.06;;;2.35
14666;BMP280;7420;53.574;10.040;2023-02-15T08:41:25;102428.00;;;2.47
14666;BMP280;7420;53.574;10.040;2023-02-15T08:43:54;102436.13;;;2.55
14666;BMP280;7420;53.574;10.040;2023-02-15T08:46:21;102426.72;;;2.52
14666;BMP280;7420;53.574;10.040;2023-02-15T08:48:47;102431.97;;;2.63
14666;BMP280;7420;53.574;10.040;2023-02-15T08:51:21;102426.91;;;2.38
14666;BMP280;7420;53.574;10.040;2023-02-15T08:53:48;102419.94;;;2.26
14666;BMP280;7420;53.574;10.040;2023-02-15T08:56:22;102416.44;;;2.49
14666;BMP280;7420;53.574;10.040;2023-02-15T08:58:48;102422.19;;;2.54
14666;BMP280;7420;53.574;10.040;2023-02-15T09:01:18;102416.31;;;2.51
14666;BMP280;7420;53.574;10.040;2023-02-15T09:03:46;102421.47;;;2.74
14666;BMP280;7420;53.574;10.040;2023-02-15T09:06:13;102424.84;;;2.76
14666;BMP280;7420;53.574;10.040;2023-02-15T09:08:39;102425.53;;;2.67
14666;BMP280;7420;53.574;10.040;2023-02-15T09:11:10;102422.41;;;2.62
14666;BMP280;7420;53.574;10.040;2023-02-15T09:13:37;102426.84;;;2.84
14666;BMP280;7420;53.574;10.040;2023-02-15T09:16:05;102423.88;;;2.77
14666;BMP280;7420;53.574;10.040;2023-02-15T09:18:33;102419.81;;;2.73
14666;BMP280;7420;53.574;10.040;2023-02-15T09:21:12;102415.75;;;2.69
14666;BMP280;7420;53.574;10.040;2023-02-15T09:23:41;102414.19;;;2.78
14666;BMP280;7420;53.574;10.040;2023-02-15T09:26:12;102416.69;;;2.68
14666;BMP280;7420;53.574;10.040;2023-02-15T09:28:41;102406.94;;;2.81
14666;BMP280;7420;53.574;10.040;2023-02-15T09:31:11;102402.75;;;2.90
14666;BMP280;7420;53.574;10.040;2023-02-15T09:33:38;102394.03;;;3.00
14666;BMP280;7420;53.574;10.040;2023-02-15T09:36:05;102399.75;;;2.94
14666;BMP280;7420;53.574;10.040;2023-02-15T09:38:31;102397.63;;;2.88
14666;BMP280;7420;53.574;10.040;2023-02-15T09:43:51;102400.81;;;2.81
14666;BMP280;7420;53.574;10.040;2023-02-15T09:46:30;102404.03;;;2.51
14666;BMP280;7420;53.574;10.040;2023-02-15T09:52:30;102399.88;;;2.93
14666;BMP280;7420;53.574;10.040;2023-02-15T10:00:04;102398.09;;;3.15
14666;BMP280;7420;53.574;10.040;2023-02-15T10:02:52;102413.13;;;2.80
14666;BMP280;7420;53.574;10.040;2023-02-15T10:05:27;102401.31;;;2.86
14666;BMP280;7420;53.574;10.040;2023-02-15T10:13:57;102408.84;;;2.79
14666;BMP280;7420;53.574;10.040;2023-02-15T10:19:25;102411.22;;;2.82
14666;BMP280;7420;53.574;10.040;2023-02-15T10:22:05;102413.13;;;2.80
14666;BMP280;7420;53.574;10.040;2023-02-15T10:27:12;102402.84;;;2.66
14666;BMP280;7420;53.574;10.040;2023-02-15T10:29:42;102407.38;;;2.64
14666;BMP280;7420;53.574;10.040;2023-02-15T10:32:22;102415.88;;;2.68
14666;BMP280;7420;53.574;10.040;2023-02-15T10:35:05;102415.03;;;2.78
14666;BMP280;7420;53.574;10.040;2023-02-15T10:40:07;102414.09;;;3.01
14666;BMP280;7420;53.574;10.040;2023-02-15T10:50:49;102414.09;;;3.01
14666;BMP280;7420;53.574;10.040;2023-02-15T10:58:56;102406.84;;;3.69
14666;BMP280;7420;53.574;10.040;2023-02-15T11:02:06;102397.28;;;3.57
14666;BMP280;7420;53.574;10.040;2023-02-15T11:04:45;102391.88;;;3.58
14666;BMP280;7420;53.574;10.040;2023-02-15T11:09:51;102387.78;;;3.76
14666;BMP280;7420;53.574;10.040;2023-02-15T11:12:23;102385.09;;;3.56
14666;BMP280;7420;53.574;10.040;2023-02-15T11:15:03;102382.88;;;3.40
14666;BMP280;7420;53.574;10.040;2023-02-15T11:17:37;102380.84;;;3.75
14666;BMP280;7420;53.574;10.040;2023-02-15T11:20:16;102379.81;;;3.67
14666;BMP280;7420;53.574;10.040;2023-02-15T11:22:47;102372.09;;;3.43
14666;BMP280;7420;53.574;10.040;2023-02-15T11:25:24;102371.88;;;3.46
14666;BMP280;7420;53.574;10.040;2023-02-15T11:27:50;102379.44;;;3.71
14666;BMP280;7420;53.574;10.040;2023-02-15T11:30:21;102383.56;;;3.85
14666;BMP280;7420;53.574;10.040;2023-02-15T11:32:50;102368.66;;;4.06
14666;BMP280;7420;53.574;10.040;2023-02-15T11:35:22;102377.41;;;4.16
14666;BMP280;7420;53.574;10.040;2023-02-15T11:40:24;102373.56;;;3.99
14666;BMP280;7420;53.574;10.040;2023-02-15T11:42:54;102357.91;;;3.98
14666;BMP280;7420;53.574;10.040;2023-02-15T11:45:31;102360.91;;;4.54
14666;BMP280;7420;53.574;10.040;2023-02-15T11:47:57;102358.50;;;4.51
14666;BMP280;7420;53.574;10.040;2023-02-15T11:50:25;102341.44;;;4.46
14666;BMP280;7420;53.574;10.040;2023-02-15T11:52:52;102337.28;;;4.73
14666;BMP280;7420;53.574;10.040;2023-02-15T11:55:21;102336.84;;;4.68
14666;BMP280;7420;53.574;10.040;2023-02-15T12:00:41;102329.91;;;4.67
14666;BMP280;7420;53.574;10.040;2023-02-15T12:03:22;102334.19;;;5.66
14666;BMP280;7420;53.574;10.040;2023-02-15T12:06:00;102338.34;;;5.78
14666;BMP280;7420;53.574;10.040;2023-02-15T12:08:36;102331.47;;;6.32
14666;BMP280;7420;53.574;10.040;2023-02-15T12:11:20;102325.66;;;6.29
14666;BMP280;7420;53.574;10.040;2023-02-15T12:14:16;102320.28;;;6.11
14666;BMP280;7420;53.574;10.040;2023-02-15T12:21:53;102313.03;;;7.57
14666;BMP280;7420;53.574;10.040;2023-02-15T12:24:22;102307.34;;;7.87
14666;BMP280;7420;53.574;10.040;2023-02-15T12:27:05;102309.03;;;8.31
14666;BMP280;7420;53.574;10.040;2023-02-15T12:29:43;102310.75;;;8.73
14666;BMP280;7420;53.574;10.040;2023-02-15T12:32:31;102311.38;;;9.09
14666;BMP280;7420;53.574;10.040;2023-02-15T12:35:13;102309.22;;;10.09
14666;BMP280;7420;53.574;10.040;2023-02-15T12:37:39;102303.34;;;10.45
14666;BMP280;7420;53.574;10.040;2023-02-15T12:40:28;102302.34;;;10.38
14666;BMP280;7420;53.574;10.040;2023-02-15T12:42:54;102297.59;;;11.11
14666;BMP280;7420;53.574;10.040;2023-02-15T12:45:30;102296.41;;;11.43
14666;BMP280;7420;53.574;10.040;2023-02-15T12:48:17;102296.97;;;11.84
14666;BMP280;7420;53.574;10.040;2023-02-15T12:50:49;102285.72;;;11.74
14666;BMP280;7420;53.574;10.040;2023-02-15T12:53:20;102291.53;;;12.14
14666;BMP280;7420;53.574;10.040;2023-02-15T12:55:56;102286.13;;;12.65
14666;BMP280;7420;53.574;10.040;2023-02-15T12:58:24;102280.06;;;12.57
14666;BMP280;7420;53.574;10.040;2023-02-15T13:03:35;102279.84;;;13.37
14666;BMP280;7420;53.574;10.040;2023-02-15T13:06:03;102294.97;;;14.14
14666;BMP280;7420;53.574;10.040;2023-02-15T13:08:36;102283.44;;;13.65
14666;BMP280;7420;53.574;10.040;2023-02-15T13:11:07;102269.94;;;12.96
14666;BMP280;7420;53.574;10.040;2023-02-15T13:13:50;102282.84;;;13.70
14666;BMP280;7420;53.574;10.040;2023-02-15T13:16:21;102277.91;;;14.15
14666;BMP280;7420;53.574;10.040;2023-02-15T13:18:51;102270.84;;;15.22
14666;BMP280;7420;53.574;10.040;2023-02-15T13:21:23;102269.78;;;15.83
14666;BMP280;7420;53.574;10.040;2023-02-15T13:24:02;102276.03;;;17.60
14666;BMP280;7420;53.574;10.040;2023-02-15T13:26:31;102275.91;;;18.04
14666;BMP280;7420;53.574;10.040;2023-02-15T13:29:00;102268.50;;;19.72
14666;BMP280;7420;53.574;10.040;2023-02-15T13:31:30;102270.31;;;19.49
14666;BMP280;7420;53.574;10.040;2023-02-15T13:33:59;102272.25;;;19.82
14666;BMP280;7420;53.574;10.040;2023-02-15T13:36:58;102285.47;;;20.48
14666;BMP280;7420;53.574;10.040;2023-02-15T13:42:23;102275.56;;;22.37
14666;BMP280;7420;53.574;10.040;2023-02-15T13:52:55;102251.09;;;21.22
14666;BMP280;7420;53.574;10.040;2023-02-15T14:01:56;102230.09;;;16.43
14666;BMP280;7420;53.574;10.040;2023-02-15T14:04:28;102219.84;;;16.01
14666;BMP280;7420;53.574;10.040;2023-02-15T14:16:03;102234.47;;;19.71
14666;BMP280;7420;53.574;10.040;2023-02-15T14:18:39;102220.16;;;19.82
14666;BMP280;7420;53.574;10.040;2023-02-15T14:21:15;102216.94;;;17.23
14666;BMP280;7420;53.574;10.040;2023-02-15T14:31:45;102214.78;;;19.00
14666;BMP280;7420;53.574;10.040;2023-02-15T14:35:37;102210.91;;;19.89
14666;BMP280;7420;53.574;10.040;2023-02-15T14:40:45;102192.16;;;16.26
14666;BMP280;7420;53.574;10.040;2023-02-15T14:46:30;102176.50;;;13.86
14666;BMP280;7420;53.574;10.040;2023-02-15T14:49:14;102173.63;;;14.15
14666;BMP280;7420;53.574;10.040;2023-02-15T15:02:16;102174.31;;;12.35
14666;BMP280;7420;53.574;10.040;2023-02-15T15:04:52;102177.22;;;12.40
14666;BMP280;7420;53.574;10.040;2023-02-15T15:07:24;102178.75;;;12.63
14666;BMP280;7420;53.574;10.040;2023-02-15T15:14:50;102167.66;;;11.14
14666;BMP280;7420;53.574;10.040;2023-02-15T15:20:08;102165.13;;;10.37
14666;BMP280;7420;53.574;10.040;2023-02-15T15:22:39;102168.91;;;10.05
14666;BMP280;7420;53.574;10.040;2023-02-15T15:27:55;102158.00;;;9.52
14666;BMP280;7420;53.574;10.040;2023-02-15T15:38:29;102158.13;;;8.71
14666;BMP280;7420;53.574;10.040;2023-02-15T15:47:02;102152.34;;;8.26
14666;BMP280;7420;53.574;10.040;2023-02-15T15:49:34;102150.09;;;8.13
14666;BMP280;7420;53.574;10.040;2023-02-15T15:52:07;102148.16;;;7.90
14666;BMP280;7420;53.574;10.040;2023-02-15T15:54:34;102146.75;;;7.78
14666;BMP280;7420;53.574;10.040;2023-02-15T15:57:04;102135.03;;;7.81
14666;BMP280;7420;53.574;10.040;2023-02-15T15:59:33;102140.72;;;7.93
14666;BMP280;7420;53.574;10.040;2023-02-15T16:02:13;102135.44;;;7.68
14666;BMP280;7420;53.574;10.040;2023-02-15T16:04:38;102136.97;;;7.71
14666;BMP280;7420;53.574;10.040;2023-02-15T16:07:33;102125.56;;;7.45
14666;BMP280;7420;53.574;10.040;2023-02-15T16:10:16;102133.66;;;7.26
14666;BMP280;7420;53.574;10.040;2023-02-15T16:12:47;102131.13;;;7.16
14666;BMP280;7420;53.574;10.040;2023-02-15T16:15:24;102127.41;;;7.09
14666;BMP280;7420;53.574;10.040;2023-02-15T16:17:59;102130.28;;;6.98
14666;BMP280;7420;53.574;10.040;2023-02-15T16:20:33;102125.59;;;6.92
14666;BMP280;7420;53.574;10.040;2023-02-15T16:29:00;102121.75;;;6.70
14666;BMP280;7420;53.574;10.040;2023-02-15T16:31:26;102113.31;;;6.66
14666;BMP280;7420;53.574;10.040;2023-02-15T16:33:53;102119.19;;;6.60
14666;BMP280;7420;53.574;10.040;2023-02-15T16:36:23;102109.03;;;6.56
14666;BMP280;7420;53.574;10.040;2023-02-15T16:41:17;102116.88;;;6.48
14666;BMP280;7420;53.574;10.040;2023-02-15T16:43:48;102120.44;;;6.39
14666;BMP280;7420;53.574;10.040;2023-02-15T16:46:24;102120.16;;;6.32
14666;BMP280;7420;53.574;10.040;2023-02-15T16:48:52;102111.34;;;6.24
14666;BMP280;7420;53.574;10.040;2023-02-15T16:51:24;102113.97;;;6.24
14666;BMP280;7420;53.574;10.040;2023-02-15T16:53:52;102102.09;;;6.10
14666;BMP280;7420;53.574;10.040;2023-02-15T16:56:23;102090.91;;;5.99
14666;BMP280;7420;53.574;10.040;2023-02-15T16:58:51;102092.56;;;6.00
14666;BMP280;7420;53.574;10.040;2023-02-15T17:01:20;102088.84;;;5.93
14666;BMP280;7420;53.574;10.040;2023-02-15T17:03:48;102085.91;;;5.96
14666;BMP280;7420;53.574;10.040;2023-02-15T17:06:26;102085.13;;;5.86
14666;BMP280;7420;53.574;10.040;2023-02-15T17:08:52;102079.03;;;5.76
14666;BMP280;7420;53.574;10.040;2023-02-15T17:11:41;102085.28;;;5.75
14666;BMP280;7420;53.574;10.040;2023-02-15T17:16:45;102071.31;;;5.65
14666;BMP280;7420;53.574;10.040;2023-02-15T17:19:19;102072.00;;;5.67
14666;BMP280;7420;53.574;10.040;2023-02-15T17:21:50;102082.84;;;5.64